createdAt,value
2023-05-15T00:00:27.928Z,6.00
2023-05-15T00:02:57.389Z,5.00
2023-05-15T00:05:25.860Z,7.00
2023-05-15T00:07:53.693Z,6.75
2023-05-15T00:10:21.253Z,5.00
2023-05-15T00:12:49.002Z,3.50
2023-05-15T00:15:17.043Z,5.00
2023-05-15T00:17:45.022Z,6.00
2023-05-15T00:20:12.736Z,6.25
2023-05-15T00:22:40.286Z,4.50
2023-05-15T00:25:07.867Z,4.00
2023-05-15T00:27:35.449Z,4.00
2023-05-15T00:30:03.401Z,3.50
2023-05-15T00:32:31.006Z,6.00
2023-05-15T00:34:58.630Z,7.00
2023-05-15T00:37:26.189Z,5.50
2023-05-15T00:39:53.757Z,6.00
2023-05-15T00:42:21.567Z,6.00
2023-05-15T00:44:49.124Z,3.00
2023-05-15T00:47:16.701Z,6.00
2023-05-15T00:49:44.602Z,3.00
2023-05-15T00:52:12.168Z,7.50
2023-05-15T00:54:39.758Z,5.00
2023-05-15T00:57:07.417Z,5.50
2023-05-15T00:59:35.330Z,3.00
2023-05-15T01:02:02.929Z,6.25
2023-05-15T01:04:30.510Z,5.75
2023-05-15T01:06:58.403Z,5.00
2023-05-15T01:09:25.959Z,6.25
2023-05-15T01:11:53.557Z,1.50
2023-05-15T01:14:21.167Z,4.75
2023-05-15T01:16:48.759Z,6.50
2023-05-15T01:19:16.810Z,4.00
2023-05-15T01:21:44.868Z,3.25
2023-05-15T01:24:12.422Z,5.50
2023-05-15T01:26:40.000Z,6.25
2023-05-15T01:29:07.547Z,5.00
2023-05-15T01:31:35.726Z,6.00
2023-05-15T01:34:03.385Z,6.00
2023-05-15T01:36:30.968Z,6.00
2023-05-15T01:38:58.514Z,4.00
2023-05-15T01:41:26.124Z,6.50
2023-05-15T01:43:56.121Z,2.00
2023-05-15T01:46:23.689Z,6.50
2023-05-15T01:48:51.370Z,6.00
2023-05-15T01:51:18.970Z,6.00
2023-05-15T01:53:46.516Z,4.00
2023-05-15T01:56:14.670Z,3.50
2023-05-15T01:58:42.225Z,5.00
2023-05-15T02:01:09.854Z,6.25
2023-05-15T02:03:37.747Z,6.00
2023-05-15T02:06:06.054Z,6.25
2023-05-15T02:08:34.209Z,4.00
2023-05-15T02:11:01.868Z,7.25
2023-05-15T02:13:29.844Z,6.00
2023-05-15T02:15:57.452Z,6.00
2023-05-15T02:18:25.082Z,7.00
2023-05-15T02:20:52.991Z,4.00
2023-05-15T02:23:20.683Z,3.50
2023-05-15T02:25:48.273Z,4.00
2023-05-15T02:28:16.173Z,6.75
2023-05-15T02:30:43.746Z,5.50
2023-05-15T02:33:11.721Z,5.00
2023-05-15T02:35:39.322Z,6.00
2023-05-15T02:38:06.884Z,3.50
2023-05-15T02:40:34.484Z,6.00
2023-05-15T02:43:02.022Z,6.00
2023-05-15T02:45:30.180Z,3.50
2023-05-15T02:47:57.784Z,4.00
2023-05-15T02:50:25.875Z,4.00
2023-05-15T02:52:53.408Z,4.50
2023-05-15T02:55:21.136Z,4.00
2023-05-15T02:57:49.354Z,4.00
2023-05-15T03:00:17.700Z,5.50
2023-05-15T03:02:45.347Z,5.00
2023-05-15T03:05:12.957Z,6.50
2023-05-15T03:07:41.456Z,3.75
2023-05-15T03:10:09.403Z,6.50
2023-05-15T03:12:37.337Z,3.00
2023-05-15T03:15:04.894Z,4.50
2023-05-15T03:17:32.585Z,5.00
2023-05-15T03:20:00.137Z,4.00
2023-05-15T03:22:27.677Z,5.50
2023-05-15T03:24:55.326Z,4.00
2023-05-15T03:27:22.902Z,6.00
2023-05-15T03:29:51.181Z,3.00
2023-05-15T03:32:18.854Z,6.00
2023-05-15T03:34:46.754Z,3.25
2023-05-15T03:37:14.320Z,6.25
2023-05-15T03:39:41.921Z,4.00
2023-05-15T03:42:09.501Z,4.00
2023-05-15T03:44:37.046Z,4.50
2023-05-15T03:47:05.054Z,6.00
2023-05-15T03:49:32.618Z,4.00
2023-05-15T03:52:00.163Z,5.50
2023-05-15T03:54:28.333Z,5.00
2023-05-15T03:56:55.924Z,3.50
2023-05-15T03:59:24.045Z,6.00
2023-05-15T04:02:03.371Z,9.00
2023-05-15T04:04:32.119Z,6.00
2023-05-15T04:06:59.778Z,0.50
2023-05-15T04:09:27.685Z,4.50
2023-05-15T04:11:55.260Z,5.50
2023-05-15T04:14:22.867Z,6.00
2023-05-15T04:16:50.489Z,6.00
2023-05-15T04:19:18.233Z,6.75
2023-05-15T04:21:46.741Z,3.50
2023-05-15T04:24:14.345Z,6.00
2023-05-15T04:26:42.049Z,6.00
2023-05-15T04:29:09.662Z,4.00
2023-05-15T04:31:38.570Z,3.00
2023-05-15T04:34:06.666Z,3.50
2023-05-15T04:36:34.309Z,9.50
2023-05-15T04:39:01.996Z,7.00
2023-05-15T04:41:30.346Z,11.50
2023-05-15T04:43:57.993Z,10.50
2023-05-15T04:46:25.932Z,15.75
2023-05-15T04:48:53.509Z,9.25
2023-05-15T04:51:21.114Z,12.00
2023-05-15T04:53:48.651Z,12.75
2023-05-15T04:56:16.245Z,11.50
2023-05-15T04:58:45.538Z,15.00
2023-05-15T05:01:13.177Z,12.50
2023-05-15T05:03:40.816Z,13.00
2023-05-15T05:06:08.514Z,14.50
2023-05-15T05:08:36.075Z,15.50
2023-05-15T05:11:04.454Z,14.00
2023-05-15T05:13:32.088Z,16.00
2023-05-15T05:15:59.747Z,16.00
2023-05-15T05:18:27.395Z,18.25
2023-05-15T05:20:55.416Z,17.50
2023-05-15T05:23:23.398Z,15.75
2023-05-15T05:25:50.995Z,17.00
2023-05-15T05:28:18.677Z,20.00
2023-05-15T05:30:46.295Z,5.50
2023-05-15T05:33:13.880Z,15.75
2023-05-15T05:35:42.268Z,15.75
2023-05-15T05:38:09.852Z,20.00
2023-05-15T05:40:38.199Z,15.00
2023-05-15T05:43:06.244Z,13.50
2023-05-15T05:45:33.938Z,11.00
2023-05-15T05:48:02.146Z,17.50
2023-05-15T05:50:29.841Z,16.00
2023-05-15T05:52:57.524Z,14.00
2023-05-15T05:55:25.394Z,8.50
2023-05-15T05:57:53.278Z,18.00
2023-05-15T06:00:21.559Z,7.50
2023-05-15T06:02:49.381Z,13.00
2023-05-15T06:05:17.157Z,17.00
2023-05-15T06:07:44.913Z,18.25
2023-05-15T06:10:13.117Z,6.75
2023-05-15T06:12:41.528Z,18.50
2023-05-15T06:15:09.070Z,15.50
2023-05-15T06:17:36.767Z,11.00
2023-05-15T06:20:05.962Z,16.50
2023-05-15T06:22:33.617Z,15.50
2023-05-15T06:25:01.450Z,17.00
2023-05-15T06:27:29.459Z,16.00
2023-05-15T06:29:57.168Z,8.75
2023-05-15T06:32:24.922Z,12.50
2023-05-15T06:34:52.896Z,9.00
2023-05-15T06:37:21.158Z,20.25
2023-05-15T06:39:48.824Z,15.25
2023-05-15T06:42:16.619Z,16.00
2023-05-15T06:44:44.730Z,12.00
2023-05-15T06:47:12.513Z,17.50
2023-05-15T06:49:41.002Z,16.25
2023-05-15T06:52:08.631Z,18.00
2023-05-15T06:54:36.249Z,10.50
2023-05-15T06:57:03.939Z,15.00
2023-05-15T06:59:34.612Z,20.50
2023-05-15T07:02:03.236Z,18.50
2023-05-15T07:04:31.899Z,22.00
2023-05-15T07:06:59.611Z,21.00
2023-05-15T07:09:29.017Z,14.00
2023-05-15T07:11:56.687Z,19.00
2023-05-15T07:14:25.110Z,20.50
2023-05-15T07:16:52.862Z,13.50
2023-05-15T07:19:21.368Z,12.75
2023-05-15T07:21:49.186Z,17.00
2023-05-15T07:24:16.914Z,7.25
2023-05-15T07:26:57.600Z,20.00
2023-05-15T07:29:27.079Z,23.00
2023-05-15T07:31:55.190Z,15.00
2023-05-15T07:34:23.690Z,19.50
2023-05-15T07:36:52.064Z,19.50
2023-05-15T07:39:19.852Z,20.00
2023-05-15T07:41:48.122Z,20.00
2023-05-15T07:44:15.795Z,13.00
2023-05-15T07:46:43.593Z,14.00
2023-05-15T07:49:12.484Z,17.50
2023-05-15T07:51:41.030Z,15.50
2023-05-15T07:54:08.797Z,17.50
2023-05-15T07:56:36.449Z,15.50
2023-05-15T07:59:04.113Z,17.50
2023-05-15T08:01:32.894Z,21.00
2023-05-15T08:04:00.815Z,20.00
2023-05-15T08:06:28.496Z,20.00
2023-05-15T08:08:56.426Z,19.75
2023-05-15T08:11:24.399Z,23.00
2023-05-15T08:13:52.474Z,22.25
2023-05-15T08:16:20.386Z,21.25
2023-05-15T08:18:48.188Z,27.00
2023-05-15T08:21:16.220Z,21.00
2023-05-15T08:23:43.943Z,24.00
2023-05-15T08:26:12.178Z,23.00
2023-05-15T08:28:39.932Z,25.00
2023-05-15T08:31:07.804Z,22.00
2023-05-15T08:33:35.516Z,23.00
2023-05-15T08:36:03.401Z,22.00
2023-05-15T08:38:31.925Z,25.00
2023-05-15T08:40:59.624Z,20.50
2023-05-15T08:43:27.393Z,19.50
2023-05-15T08:45:55.255Z,24.00
2023-05-15T08:48:23.023Z,26.75
2023-05-15T08:50:51.613Z,20.75
2023-05-15T08:53:19.375Z,21.75
2023-05-15T08:55:47.668Z,30.00
2023-05-15T08:58:17.075Z,25.75
2023-05-15T09:00:45.037Z,16.00
2023-05-15T09:03:13.561Z,24.50
2023-05-15T09:05:41.335Z,21.25
2023-05-15T09:08:09.319Z,29.00
2023-05-15T09:10:37.420Z,28.50
2023-05-15T09:13:05.786Z,26.50
2023-05-15T09:15:34.137Z,23.50
2023-05-15T09:18:02.474Z,25.00
2023-05-15T09:20:30.189Z,18.00
2023-05-15T09:22:58.043Z,27.00
2023-05-15T09:25:25.998Z,28.00
2023-05-15T09:27:54.333Z,11.75
2023-05-15T09:30:23.201Z,29.50
2023-05-15T09:32:51.753Z,17.00
2023-05-15T09:35:19.512Z,15.25
2023-05-15T09:37:47.386Z,29.00
2023-05-15T09:40:17.440Z,24.75
2023-05-15T09:42:45.272Z,25.00
2023-05-15T09:45:13.075Z,26.75
2023-05-15T09:47:40.952Z,25.25
2023-05-15T09:50:08.934Z,22.25
2023-05-15T09:52:37.280Z,26.00
2023-05-15T09:55:05.189Z,27.00
2023-05-15T09:57:33.103Z,21.50
2023-05-15T10:00:00.975Z,28.75
2023-05-15T10:02:32.575Z,24.80
2023-05-15T10:05:01.381Z,17.00
2023-05-15T10:07:29.269Z,23.80
2023-05-15T10:09:57.174Z,24.20
2023-05-15T10:12:25.121Z,19.00
2023-05-15T10:14:52.854Z,25.60
2023-05-15T10:17:20.981Z,23.20
2023-05-15T10:19:57.902Z,22.00
2023-05-15T10:22:26.508Z,23.00
2023-05-15T10:24:54.350Z,20.00
2023-05-15T10:27:22.616Z,22.00
2023-05-15T10:29:50.377Z,19.00
2023-05-15T10:32:18.170Z,23.00
2023-05-15T10:34:45.898Z,25.40
2023-05-15T10:37:13.864Z,22.40
2023-05-15T10:39:42.156Z,18.00
2023-05-15T10:42:10.038Z,21.00
2023-05-15T10:44:38.067Z,12.60
2023-05-15T10:47:05.917Z,18.20
2023-05-15T10:49:33.787Z,16.00
2023-05-15T10:52:02.303Z,18.80
2023-05-15T10:54:30.184Z,16.00
2023-05-15T10:56:58.052Z,18.00
2023-05-15T10:59:25.972Z,15.60
2023-05-15T11:01:53.930Z,16.20
2023-05-15T11:04:22.541Z,14.40
2023-05-15T11:06:50.269Z,16.00
2023-05-15T11:09:18.129Z,16.00
2023-05-15T11:11:46.016Z,13.00
2023-05-15T11:14:13.824Z,11.20
2023-05-15T11:16:42.691Z,16.80
2023-05-15T11:19:10.576Z,14.60
2023-05-15T11:21:38.482Z,13.40
2023-05-15T11:24:06.613Z,14.20
2023-05-15T11:26:34.310Z,17.60
2023-05-15T11:29:03.492Z,13.60
2023-05-15T11:31:31.432Z,14.40
2023-05-15T11:33:59.327Z,17.00
2023-05-15T11:36:27.150Z,15.20
2023-05-15T11:38:55.133Z,16.80
2023-05-15T11:41:27.963Z,15.80
2023-05-15T11:43:55.843Z,20.20
2023-05-15T11:46:23.644Z,17.40
2023-05-15T11:48:51.497Z,14.60
2023-05-15T11:51:20.730Z,16.40
2023-05-15T11:53:48.851Z,18.00
2023-05-15T11:56:16.678Z,18.40
2023-05-15T11:58:44.529Z,18.60
2023-05-15T12:01:12.656Z,17.40
2023-05-15T12:03:40.660Z,19.40
2023-05-15T12:06:09.453Z,19.00
2023-05-15T12:08:37.855Z,14.40
2023-05-15T12:11:05.800Z,17.80
2023-05-15T12:13:34.274Z,18.20
2023-05-15T12:16:02.256Z,14.00
2023-05-15T12:18:30.876Z,16.40
2023-05-15T12:20:58.690Z,14.40
2023-05-15T12:23:26.926Z,15.80
2023-05-15T12:25:55.357Z,12.40
2023-05-15T12:28:23.637Z,16.00
2023-05-15T12:30:51.966Z,12.00
2023-05-15T12:33:19.703Z,12.00
2023-05-15T12:35:47.922Z,15.40
2023-05-15T12:38:15.982Z,15.00
2023-05-15T12:40:43.796Z,12.60
2023-05-15T12:43:12.164Z,13.20
2023-05-15T12:45:40.064Z,15.00
2023-05-15T12:48:08.565Z,11.80
2023-05-15T12:50:37.488Z,15.20
2023-05-15T12:53:05.597Z,14.60
2023-05-15T12:55:34.684Z,13.20
2023-05-15T12:58:03.071Z,11.00
2023-05-15T13:00:30.908Z,10.40
2023-05-15T13:02:58.898Z,10.00
2023-05-15T13:05:26.803Z,8.80
2023-05-15T13:07:54.787Z,11.20
2023-05-15T13:10:23.178Z,9.80
2023-05-15T13:12:51.124Z,12.20
2023-05-15T13:15:19.040Z,9.40
2023-05-15T13:17:47.359Z,10.80
2023-05-15T13:20:16.111Z,10.00
2023-05-15T13:22:43.870Z,9.00
2023-05-15T13:25:11.612Z,6.60
2023-05-15T13:27:39.536Z,10.40
2023-05-15T13:30:07.378Z,10.20
2023-05-15T13:32:36.204Z,10.80
2023-05-15T13:35:05.169Z,11.00
2023-05-15T13:37:32.923Z,11.00
2023-05-15T13:40:01.273Z,11.00
2023-05-15T13:42:29.227Z,12.00
2023-05-15T13:44:57.274Z,11.00
2023-05-15T13:47:25.092Z,13.20
2023-05-15T13:49:52.923Z,11.60
2023-05-15T13:52:20.764Z,11.00
2023-05-15T13:54:48.611Z,9.40
2023-05-15T13:57:17.066Z,5.00
2023-05-15T13:59:44.867Z,8.60
2023-05-15T14:02:13.212Z,10.00
2023-05-15T14:04:40.971Z,9.20
2023-05-15T14:07:08.914Z,10.40
2023-05-15T14:09:37.595Z,9.00
2023-05-15T14:12:05.409Z,6.40
2023-05-15T14:14:33.222Z,7.00
2023-05-15T14:17:01.320Z,7.40
2023-05-15T14:19:29.230Z,8.80
2023-05-15T14:21:57.290Z,7.80
2023-05-15T14:24:25.466Z,6.00
2023-05-15T14:26:53.296Z,5.00
2023-05-15T14:29:21.162Z,9.00
2023-05-15T14:31:49.002Z,9.00
2023-05-15T14:34:17.588Z,9.60
2023-05-15T14:36:46.568Z,9.60
2023-05-15T14:39:14.362Z,10.20
2023-05-15T14:41:42.389Z,5.00
2023-05-15T14:44:10.102Z,7.00
2023-05-15T14:46:41.063Z,6.60
2023-05-15T14:49:09.070Z,6.00
2023-05-15T14:51:36.926Z,10.00
2023-05-15T14:54:05.354Z,9.60
2023-05-15T14:56:33.274Z,7.80
2023-05-15T14:59:01.520Z,9.80
2023-05-15T15:01:29.440Z,7.60
2023-05-15T15:03:57.481Z,10.00
2023-05-15T15:06:25.303Z,8.60
2023-05-15T15:08:53.399Z,9.20
2023-05-15T15:11:21.682Z,10.00
2023-05-15T15:13:49.462Z,9.40
2023-05-15T15:16:17.366Z,9.40
2023-05-15T15:18:45.401Z,8.60
2023-05-15T15:21:13.091Z,8.60
2023-05-15T15:23:41.220Z,8.00
2023-05-15T15:26:09.252Z,7.40
2023-05-15T15:28:36.999Z,10.80
2023-05-15T15:31:04.954Z,10.20
2023-05-15T15:33:32.822Z,11.00
2023-05-15T15:36:01.122Z,11.40
2023-05-15T15:38:29.025Z,13.80
2023-05-15T15:40:56.909Z,11.00
2023-05-15T15:43:24.682Z,10.00
2023-05-15T15:45:52.487Z,6.60
2023-05-15T15:48:21.754Z,10.80
2023-05-15T15:50:49.639Z,11.60
2023-05-15T15:53:17.777Z,9.40
2023-05-15T15:55:47.115Z,8.00
2023-05-15T15:58:15.081Z,10.60
2023-05-15T16:00:43.342Z,9.80
2023-05-15T16:03:11.311Z,6.80
2023-05-15T16:05:39.202Z,7.20
2023-05-15T16:08:07.094Z,6.40
2023-05-15T16:10:35.095Z,8.00
2023-05-15T16:13:03.535Z,6.60
2023-05-15T16:15:31.883Z,5.00
2023-05-15T16:17:59.891Z,7.80
2023-05-15T16:20:28.062Z,7.20
2023-05-15T16:22:56.110Z,7.00
2023-05-15T16:25:25.062Z,8.20
2023-05-15T16:27:52.974Z,9.80
2023-05-15T16:30:20.733Z,8.80
2023-05-15T16:32:48.918Z,8.60
2023-05-15T16:35:16.944Z,8.40
2023-05-15T16:37:46.071Z,8.20
2023-05-15T16:40:13.850Z,8.00
2023-05-15T16:42:41.675Z,7.80
2023-05-15T16:45:09.527Z,8.40
2023-05-15T16:47:37.461Z,7.60
2023-05-15T16:50:05.916Z,7.40
2023-05-15T16:52:33.756Z,8.60
2023-05-15T16:55:01.710Z,4.00
2023-05-15T16:57:29.601Z,8.00
2023-05-15T16:59:57.990Z,7.40
2023-05-15T17:02:26.536Z,8.00
2023-05-15T17:04:54.482Z,3.80
2023-05-15T17:07:22.435Z,3.80
2023-05-15T17:09:50.215Z,7.20
2023-05-15T17:12:18.299Z,6.20
2023-05-15T17:14:47.039Z,5.20
2023-05-15T17:17:15.011Z,5.20
2023-05-15T17:19:43.006Z,4.80
2023-05-15T17:22:11.275Z,4.00
2023-05-15T17:24:50.754Z,3.60
2023-05-15T17:27:20.503Z,6.00
2023-05-15T17:29:48.541Z,6.00
2023-05-15T17:32:17.212Z,4.00
2023-05-15T17:34:45.304Z,5.00
2023-05-15T17:40:23.008Z,7.00
2023-05-15T17:42:51.378Z,7.00
2023-05-15T17:51:21.476Z,7.80
2023-05-15T17:53:49.856Z,8.40
2023-05-15T17:56:17.748Z,7.00
2023-05-15T17:58:45.777Z,7.80
2023-05-15T18:01:13.660Z,3.00
2023-05-15T18:03:42.059Z,6.80
2023-05-15T18:06:11.156Z,4.00
2023-05-15T18:08:39.151Z,6.00
2023-05-15T18:11:17.588Z,7.40
2023-05-15T18:13:50.483Z,5.20
2023-05-15T18:16:18.605Z,7.40
2023-05-15T18:18:48.926Z,9.00
2023-05-15T18:21:16.846Z,7.50
2023-05-15T18:23:44.694Z,6.60
2023-05-15T18:26:13.572Z,9.00
2023-05-15T18:28:41.516Z,6.00
2023-05-15T18:31:09.551Z,9.00
2023-05-15T18:33:37.483Z,3.00
2023-05-15T18:36:07.362Z,8.50
2023-05-15T18:38:35.934Z,6.25
2023-05-15T18:41:03.764Z,4.00
2023-05-15T18:43:31.665Z,6.00
2023-05-15T18:45:59.513Z,6.00
2023-05-15T18:48:27.390Z,7.00
2023-05-15T18:50:56.390Z,5.50
2023-05-15T18:53:24.209Z,6.00
2023-05-15T18:55:52.023Z,6.00
2023-05-15T18:58:20.292Z,4.00
2023-05-15T19:00:48.222Z,4.50
2023-05-15T19:03:16.810Z,5.00
2023-05-15T19:05:44.866Z,4.00
2023-05-15T19:08:12.744Z,4.25
2023-05-15T19:10:40.571Z,5.50
2023-05-15T19:13:08.589Z,6.50
2023-05-15T19:15:36.967Z,6.25
2023-05-15T19:18:04.919Z,8.50
2023-05-15T19:20:33.384Z,6.75
2023-05-15T19:23:01.139Z,6.00
2023-05-15T19:25:29.159Z,6.00
2023-05-15T19:27:58.056Z,6.50
2023-05-15T19:30:26.214Z,8.00
2023-05-15T19:33:00.588Z,7.00
2023-05-15T19:35:28.635Z,8.50
2023-05-15T19:37:56.656Z,7.00
2023-05-15T19:40:25.854Z,7.00
2023-05-15T19:42:53.979Z,9.00
2023-05-15T19:45:21.933Z,7.00
2023-05-15T19:47:49.988Z,8.50
2023-05-15T19:50:18.675Z,9.00
2023-05-15T19:52:47.074Z,7.50
2023-05-15T19:55:14.901Z,9.25
2023-05-15T19:57:44.766Z,10.00
2023-05-15T20:00:17.900Z,5.25
2023-05-15T20:02:57.871Z,10.00
2023-05-15T20:05:26.733Z,10.75
2023-05-15T20:07:54.665Z,9.25
2023-05-15T20:10:22.655Z,9.50
2023-05-15T20:12:50.599Z,10.00
2023-05-15T20:15:19.360Z,4.50
2023-05-15T20:17:47.263Z,9.00
2023-05-15T20:20:15.412Z,9.00
2023-05-15T20:22:43.306Z,11.00
2023-05-15T20:25:11.161Z,13.00
2023-05-15T20:27:39.591Z,4.00
2023-05-15T20:30:07.421Z,9.50
2023-05-15T20:32:35.430Z,10.00
2023-05-15T20:35:03.347Z,7.50
2023-05-15T20:37:31.403Z,12.00
2023-05-15T20:39:59.892Z,10.00
2023-05-15T20:42:27.817Z,6.00
2023-05-15T20:44:56.235Z,10.75
2023-05-15T20:47:24.242Z,10.00
2023-05-15T20:49:52.200Z,9.00
2023-05-15T20:52:21.404Z,10.00
2023-05-15T20:54:49.217Z,9.50
2023-05-15T20:57:17.016Z,9.75
2023-05-15T20:59:45.029Z,6.75
2023-05-15T21:02:13.110Z,12.25
2023-05-15T21:04:41.431Z,9.00
2023-05-15T21:07:09.208Z,9.25
2023-05-15T21:09:37.048Z,13.00
2023-05-15T21:12:05.192Z,9.00
2023-05-15T21:14:32.996Z,12.00
2023-05-15T21:17:00.895Z,9.50
2023-05-15T21:19:28.854Z,10.00
2023-05-15T21:21:56.670Z,4.00
2023-05-15T21:24:24.364Z,9.00
2023-05-15T21:26:52.407Z,9.50
2023-05-15T21:29:21.120Z,10.25
2023-05-15T21:31:48.818Z,11.00
2023-05-15T21:34:16.657Z,6.25
2023-05-15T21:36:44.398Z,6.75
2023-05-15T21:39:12.123Z,6.75
2023-05-15T21:41:40.122Z,6.50
2023-05-15T21:44:08.092Z,6.75
2023-05-15T21:46:35.902Z,9.00
2023-05-15T21:49:03.626Z,8.00
2023-05-15T21:51:34.625Z,9.25
2023-05-15T21:54:02.663Z,9.75
2023-05-15T21:56:30.308Z,8.00
2023-05-15T21:58:57.966Z,10.50
2023-05-15T22:01:25.676Z,6.50
2023-05-15T22:03:53.621Z,8.00
2023-05-15T22:06:21.771Z,6.25
2023-05-15T22:08:49.870Z,9.00
2023-05-15T22:11:17.691Z,10.00
2023-05-15T22:13:46.117Z,9.25
2023-05-15T22:16:14.531Z,9.00
2023-05-15T22:18:45.432Z,6.25
2023-05-15T22:21:13.256Z,7.00
2023-05-15T22:23:40.978Z,6.75
2023-05-15T22:26:08.649Z,6.25
2023-05-15T22:28:36.386Z,2.00
2023-05-15T22:31:04.618Z,8.50
2023-05-15T22:33:32.246Z,7.00
2023-05-15T22:35:59.935Z,7.50
2023-05-15T22:38:27.759Z,2.00
2023-05-15T22:40:55.504Z,6.00
2023-05-15T22:43:23.525Z,5.75
2023-05-15T22:45:51.225Z,8.33
2023-05-15T22:48:18.901Z,6.75
2023-05-15T22:50:46.623Z,6.50
2023-05-15T22:53:14.281Z,9.00
2023-05-15T22:55:42.299Z,1.00
2023-05-15T22:58:10.609Z,7.00
2023-05-15T23:00:38.268Z,6.25
2023-05-15T23:03:05.996Z,6.25
2023-05-15T23:05:34.012Z,8.50
2023-05-15T23:08:01.997Z,6.50
2023-05-15T23:10:29.813Z,6.00
2023-05-15T23:12:57.549Z,9.00
2023-05-15T23:15:25.223Z,7.00
2023-05-15T23:17:53.086Z,6.00
2023-05-15T23:20:21.692Z,6.25
2023-05-15T23:22:49.319Z,8.50
2023-05-15T23:25:16.914Z,3.25
2023-05-15T23:27:44.666Z,5.00
2023-05-15T23:30:12.742Z,6.25
2023-05-15T23:32:40.363Z,8.50
2023-05-15T23:35:07.991Z,3.00
2023-05-15T23:37:35.996Z,7.00
2023-05-15T23:40:05.326Z,9.00
2023-05-15T23:42:34.509Z,6.00
2023-05-15T23:45:02.481Z,7.50
2023-05-15T23:47:30.351Z,9.00
2023-05-15T23:49:58.088Z,9.50
2023-05-15T23:52:25.749Z,9.50
2023-05-15T23:54:53.547Z,6.00
2023-05-15T23:57:21.302Z,6.75
2023-05-15T23:59:48.913Z,6.00
